createdAt,value
2018-07-12T00:02:28.081Z,15.83
2018-07-12T00:04:56.668Z,15.75
2018-07-12T00:07:24.973Z,15.61
2018-07-12T00:09:53.278Z,15.50
2018-07-12T00:12:21.551Z,15.50
2018-07-12T00:14:49.874Z,15.48
2018-07-12T00:17:18.376Z,15.40
2018-07-12T00:19:46.875Z,15.44
2018-07-12T00:22:15.376Z,15.52
2018-07-12T00:24:43.653Z,15.63
2018-07-12T00:27:11.905Z,15.62
2018-07-12T00:29:40.461Z,15.54
2018-07-12T00:32:09.030Z,15.48
2018-07-12T00:34:37.446Z,15.45
2018-07-12T00:37:05.846Z,15.56
2018-07-12T00:39:33.947Z,15.55
2018-07-12T00:42:02.191Z,15.49
2018-07-12T00:44:30.420Z,15.53
2018-07-12T00:49:38.345Z,15.42
2018-07-12T00:52:06.530Z,15.43
2018-07-12T00:54:34.717Z,15.40
2018-07-12T00:57:02.971Z,15.39
2018-07-12T00:59:31.194Z,15.38
2018-07-12T01:02:00.421Z,15.36
2018-07-12T01:04:28.734Z,15.44
2018-07-12T01:06:56.936Z,15.43
2018-07-12T01:09:25.253Z,15.43
2018-07-12T01:11:53.497Z,15.41
2018-07-12T01:14:21.776Z,15.47
2018-07-12T01:16:49.992Z,15.51
2018-07-12T01:19:18.221Z,15.45
2018-07-12T01:21:46.499Z,15.38
2018-07-12T01:24:14.712Z,15.45
2018-07-12T01:26:42.985Z,15.46
2018-07-12T01:29:11.181Z,15.32
2018-07-12T01:31:39.397Z,15.25
2018-07-12T01:34:07.613Z,15.24
2018-07-12T01:36:35.800Z,15.21
2018-07-12T01:39:05.128Z,15.17
2018-07-12T01:41:33.345Z,15.09
2018-07-12T01:44:01.568Z,15.11
2018-07-12T01:46:30.007Z,15.14
2018-07-12T01:48:58.215Z,15.14
2018-07-12T01:51:26.493Z,15.15
2018-07-12T01:53:54.704Z,15.15
2018-07-12T01:56:22.930Z,15.09
2018-07-12T01:58:51.362Z,14.98
2018-07-12T02:01:19.735Z,14.96
2018-07-12T02:03:47.946Z,14.98
2018-07-12T02:06:16.156Z,14.98
2018-07-12T02:08:44.358Z,14.94
2018-07-12T02:11:12.617Z,14.86
2018-07-12T02:13:40.823Z,14.81
2018-07-12T02:16:09.093Z,14.78
2018-07-12T02:18:37.340Z,14.76
2018-07-12T02:21:05.557Z,14.73
2018-07-12T02:23:33.994Z,14.62
2018-07-12T02:26:02.274Z,14.55
2018-07-12T02:28:30.481Z,14.53
2018-07-12T02:30:58.698Z,14.37
2018-07-12T02:33:26.964Z,14.16
2018-07-12T02:35:55.202Z,14.04
2018-07-12T02:38:23.393Z,13.89
2018-07-12T02:40:51.703Z,13.77
2018-07-12T02:43:19.910Z,13.80
2018-07-12T02:45:48.101Z,13.76
2018-07-12T02:48:16.574Z,13.67
2018-07-12T02:50:44.776Z,13.63
2018-07-12T02:53:13.029Z,13.62
2018-07-12T02:55:41.249Z,13.85
2018-07-12T02:58:09.541Z,13.79
2018-07-12T03:00:37.778Z,13.73
2018-07-12T03:03:05.956Z,13.67
2018-07-12T03:05:34.242Z,13.63
2018-07-12T03:08:02.493Z,13.60
2018-07-12T03:10:30.957Z,13.63
2018-07-12T03:12:59.212Z,13.59
2018-07-12T03:15:27.537Z,13.53
2018-07-12T03:17:56.266Z,13.48
2018-07-12T03:20:24.457Z,13.50
2018-07-12T03:22:52.702Z,13.48
2018-07-12T03:25:21.091Z,13.42
2018-07-12T03:27:49.283Z,13.40
2018-07-12T03:30:17.509Z,13.39
2018-07-12T03:32:45.714Z,13.41
2018-07-12T03:35:13.932Z,13.49
2018-07-12T03:37:42.172Z,13.58
2018-07-12T03:40:10.373Z,13.69
2018-07-12T03:42:38.558Z,13.92
2018-07-12T03:45:06.745Z,14.10
2018-07-12T03:47:34.978Z,14.21
2018-07-12T03:50:03.309Z,14.22
2018-07-12T03:52:31.539Z,14.20
2018-07-12T03:54:59.725Z,14.22
2018-07-12T03:57:28.057Z,14.21
2018-07-12T03:59:56.241Z,14.18
2018-07-12T04:02:24.501Z,14.07
2018-07-12T04:04:52.750Z,14.14
2018-07-12T04:07:20.953Z,14.13
2018-07-12T04:09:49.140Z,14.22
2018-07-12T04:12:17.337Z,14.31
2018-07-12T04:14:45.607Z,14.36
2018-07-12T04:17:17.922Z,14.35
2018-07-12T04:19:46.133Z,14.43
2018-07-12T04:22:14.386Z,14.68
2018-07-12T04:24:42.688Z,14.90
2018-07-12T04:27:10.893Z,15.17
2018-07-12T04:29:39.074Z,15.46
2018-07-12T04:32:07.335Z,15.71
2018-07-12T04:34:35.612Z,16.00
2018-07-12T04:37:04.071Z,16.20
2018-07-12T04:39:32.574Z,16.45
2018-07-12T04:42:00.873Z,16.64
2018-07-12T04:44:29.171Z,16.87
2018-07-12T04:46:57.409Z,17.21
2018-07-12T04:49:25.692Z,17.54
2018-07-12T04:51:55.670Z,17.97
2018-07-12T04:54:24.455Z,18.40
2018-07-12T04:56:52.713Z,18.99
2018-07-12T04:59:21.572Z,19.30
2018-07-12T05:01:50.538Z,19.25
2018-07-12T05:04:18.942Z,19.53
2018-07-12T05:06:47.152Z,19.79
2018-07-12T05:09:15.381Z,20.19
2018-07-12T05:11:43.694Z,20.72
2018-07-12T05:14:14.008Z,21.41
2018-07-12T05:16:42.292Z,22.37
2018-07-12T05:19:11.109Z,23.40
2018-07-12T05:21:39.496Z,24.37
2018-07-12T05:24:07.768Z,25.13
2018-07-12T05:26:36.570Z,25.89
2018-07-12T05:29:05.536Z,27.16
2018-07-12T05:31:34.321Z,28.46
2018-07-12T05:34:03.154Z,29.58
2018-07-12T05:37:05.493Z,29.49
2018-07-12T05:39:35.956Z,28.79
2018-07-12T05:42:06.194Z,27.81
2018-07-12T05:44:36.453Z,27.07
2018-07-12T05:47:07.053Z,26.61
2018-07-12T05:49:37.875Z,27.33
2018-07-12T05:52:08.874Z,28.65
2018-07-12T05:54:39.359Z,30.21
2018-07-12T05:57:10.085Z,31.77
2018-07-12T05:59:40.732Z,33.19
2018-07-12T06:02:20.597Z,34.43
2018-07-12T06:04:51.507Z,35.75
2018-07-12T06:07:31.325Z,36.53
2018-07-12T06:10:01.714Z,37.00
2018-07-12T06:12:32.561Z,37.86
2018-07-12T06:15:02.942Z,38.58
2018-07-12T06:17:33.372Z,39.15
2018-07-12T06:20:03.834Z,39.36
2018-07-12T06:22:33.970Z,39.96
2018-07-12T06:25:04.695Z,40.16
2018-07-12T06:27:35.202Z,40.29
2018-07-12T06:30:07.064Z,40.58
2018-07-12T06:32:37.655Z,41.25
2018-07-12T06:35:08.433Z,41.51
2018-07-12T06:37:38.996Z,41.85
2018-07-12T06:40:09.286Z,42.08
2018-07-12T06:42:39.786Z,42.50
2018-07-12T06:45:10.765Z,42.82
2018-07-12T06:47:41.273Z,41.83
2018-07-12T06:50:11.932Z,41.82
2018-07-12T06:52:42.472Z,41.25
2018-07-12T06:55:12.918Z,41.62
2018-07-12T06:57:43.457Z,41.77
2018-07-12T07:00:13.935Z,41.79
2018-07-12T07:02:44.301Z,42.34
2018-07-12T07:05:14.738Z,42.90
2018-07-12T07:07:44.857Z,42.72
2018-07-12T07:10:15.301Z,42.66
2018-07-12T07:12:45.702Z,42.20
2018-07-12T07:15:16.216Z,40.74
2018-07-12T07:17:47.593Z,40.23
2018-07-12T07:20:18.272Z,40.78
2018-07-12T07:22:48.810Z,41.17
2018-07-12T07:25:19.502Z,41.67
2018-07-12T07:27:49.625Z,42.13
2018-07-12T07:30:19.977Z,42.90
2018-07-12T07:32:50.333Z,43.35
2018-07-12T07:35:20.766Z,44.06
2018-07-12T07:37:51.093Z,43.96
2018-07-12T07:40:21.473Z,42.90
2018-07-12T07:42:51.806Z,42.03
2018-07-12T07:45:22.399Z,42.40
2018-07-12T07:47:52.754Z,42.14
2018-07-12T07:50:23.159Z,42.53
2018-07-12T07:52:54.010Z,41.85
2018-07-12T07:55:24.426Z,40.66
2018-07-12T07:57:54.545Z,39.37
2018-07-12T08:00:24.837Z,38.94
2018-07-12T08:02:55.133Z,40.24
2018-07-12T08:05:25.477Z,41.00
2018-07-12T08:07:55.851Z,42.20
2018-07-12T08:10:28.073Z,42.93
2018-07-12T08:12:58.492Z,42.22
2018-07-12T08:15:28.805Z,40.99
2018-07-12T08:17:59.301Z,40.72
2018-07-12T08:20:29.638Z,41.35
2018-07-12T08:22:59.978Z,41.56
2018-07-12T08:25:30.316Z,42.11
2018-07-12T08:28:11.653Z,40.99
2018-07-12T08:30:41.862Z,39.79
2018-07-12T08:33:12.234Z,38.49
2018-07-12T08:35:42.595Z,37.30
2018-07-12T08:38:12.917Z,36.08
2018-07-12T08:40:43.578Z,35.74
2018-07-12T08:43:14.105Z,36.61
2018-07-12T08:45:44.972Z,36.66
2018-07-12T08:48:15.628Z,36.75
2018-07-12T08:50:46.344Z,38.01
2018-07-12T08:53:17.247Z,38.93
2018-07-12T08:55:47.641Z,40.07
2018-07-12T08:58:18.098Z,39.44
2018-07-12T09:00:48.849Z,38.71
2018-07-12T09:03:19.501Z,38.35
2018-07-12T09:05:50.200Z,38.52
2018-07-12T09:08:20.845Z,37.88
2018-07-12T09:10:51.231Z,36.65
2018-07-12T09:13:21.892Z,36.73
2018-07-12T09:15:52.557Z,36.52
2018-07-12T09:18:23.466Z,37.01
2018-07-12T09:20:54.165Z,36.70
2018-07-12T09:23:24.794Z,36.64
2018-07-12T09:25:55.517Z,36.70
2018-07-12T09:28:26.264Z,37.24
2018-07-12T09:30:56.992Z,36.93
2018-07-12T09:33:27.849Z,35.85
2018-07-12T09:35:58.704Z,35.23
2018-07-12T09:38:49.970Z,34.14
2018-07-12T09:41:22.064Z,32.73
2018-07-12T09:43:52.787Z,31.93
2018-07-12T09:46:23.258Z,30.88
2018-07-12T09:48:53.899Z,30.13
2018-07-12T09:51:24.372Z,29.61
2018-07-12T09:53:54.948Z,29.26
2018-07-12T09:56:35.130Z,29.45
2018-07-12T09:59:05.664Z,29.43
2018-07-12T10:01:41.482Z,28.82
2018-07-12T10:04:12.097Z,28.98
2018-07-12T10:06:47.930Z,29.07
2018-07-12T10:09:23.670Z,29.02
2018-07-12T10:11:59.413Z,29.18
2018-07-12T10:14:35.393Z,29.34
2018-07-12T10:17:11.551Z,29.02
2018-07-12T10:19:43.123Z,28.77
2018-07-12T10:22:13.788Z,28.41
2018-07-12T10:24:44.413Z,27.90
2018-07-12T10:27:15.098Z,27.20
2018-07-12T10:29:45.779Z,26.09
2018-07-12T10:32:16.498Z,24.54
2018-07-12T10:34:47.170Z,23.03
2018-07-12T10:37:17.416Z,21.95
2018-07-12T10:39:47.520Z,21.18
2018-07-12T10:42:17.613Z,20.57
2018-07-12T10:44:47.673Z,20.20
2018-07-12T10:47:17.734Z,19.89
2018-07-12T10:49:47.829Z,19.74
2018-07-12T10:52:17.906Z,19.55
2018-07-12T10:54:47.984Z,19.30
2018-07-12T10:57:18.040Z,19.16
2018-07-12T10:59:48.085Z,19.20
2018-07-12T11:02:18.210Z,19.19
2018-07-12T11:04:48.313Z,19.17
2018-07-12T11:07:18.749Z,19.56
2018-07-12T11:09:48.843Z,19.88
2018-07-12T11:12:18.909Z,20.20
2018-07-12T11:14:48.984Z,20.38
2018-07-12T11:17:19.043Z,20.53
2018-07-12T11:19:49.166Z,20.58
2018-07-12T11:22:19.331Z,20.62
2018-07-12T11:24:49.384Z,20.72
2018-07-12T11:27:19.433Z,20.80
2018-07-12T11:29:53.712Z,20.87
2018-07-12T11:32:23.823Z,20.96
2018-07-12T11:34:53.883Z,21.06
2018-07-12T11:37:25.618Z,21.11
2018-07-12T11:39:55.678Z,21.19
2018-07-12T11:42:25.757Z,21.15
2018-07-12T11:44:55.844Z,21.06
2018-07-12T11:47:25.998Z,20.99
2018-07-12T11:49:56.074Z,20.90
2018-07-12T11:52:26.141Z,20.81
2018-07-12T11:54:56.600Z,20.69
2018-07-12T11:57:26.721Z,20.60
2018-07-12T11:59:56.784Z,20.45
2018-07-12T12:02:26.853Z,20.43
2018-07-12T12:04:56.885Z,20.34
2018-07-12T12:07:26.989Z,20.17
2018-07-12T12:09:57.042Z,20.20
2018-07-12T12:12:27.170Z,20.26
2018-07-12T12:14:56.977Z,20.26
2018-07-12T12:17:27.037Z,20.37
2018-07-12T12:19:57.109Z,20.58
2018-07-12T12:22:27.186Z,20.90
2018-07-12T12:24:57.237Z,21.23
2018-07-12T12:27:27.320Z,21.60
2018-07-12T12:29:57.370Z,21.91
2018-07-12T12:32:27.457Z,22.28
2018-07-12T12:34:57.530Z,22.65
2018-07-12T12:37:27.705Z,22.91
2018-07-12T12:39:57.748Z,23.05
2018-07-12T12:42:27.825Z,23.21
2018-07-12T12:44:57.724Z,23.35
2018-07-12T12:47:27.905Z,23.41
2018-07-12T12:49:58.020Z,23.54
2018-07-12T12:52:28.185Z,23.67
2018-07-12T12:54:59.435Z,23.92
2018-07-12T12:57:30.094Z,24.11
2018-07-12T13:00:00.879Z,24.20
2018-07-12T13:02:31.553Z,24.14
2018-07-12T13:05:02.252Z,24.21
2018-07-12T13:07:32.890Z,24.20
2018-07-12T13:10:03.564Z,24.10
2018-07-12T13:12:34.245Z,24.01
2018-07-12T13:15:05.153Z,23.78
2018-07-12T13:17:35.814Z,23.51
2018-07-12T13:20:06.464Z,23.29
2018-07-12T13:22:37.305Z,23.09
2018-07-12T13:25:07.872Z,23.01
2018-07-12T13:27:38.422Z,23.01
2018-07-12T13:30:09.320Z,23.05
2018-07-12T13:32:40.033Z,23.34
2018-07-12T13:35:10.678Z,23.69
2018-07-12T13:37:41.361Z,24.12
2018-07-12T13:40:12.080Z,24.46
2018-07-12T13:42:42.744Z,24.66
2018-07-12T13:45:13.374Z,24.63
2018-07-12T13:47:44.108Z,24.57
2018-07-12T13:50:14.770Z,24.47
2018-07-12T13:52:45.571Z,24.38
2018-07-12T13:55:17.631Z,24.37
2018-07-12T13:57:48.370Z,24.27
2018-07-12T14:00:19.070Z,24.22
2018-07-12T14:02:49.845Z,24.12
2018-07-12T14:05:20.506Z,24.07
2018-07-12T14:07:51.232Z,24.01
2018-07-12T14:10:21.958Z,23.92
2018-07-12T14:12:52.727Z,23.71
2018-07-12T14:15:23.681Z,23.61
2018-07-12T14:17:55.138Z,23.51
2018-07-12T14:20:26.584Z,23.39
2018-07-12T14:22:58.106Z,23.41
2018-07-12T14:25:29.284Z,23.51
2018-07-12T14:28:00.045Z,23.69
2018-07-12T14:30:30.718Z,23.80
2018-07-12T14:33:01.401Z,23.74
2018-07-12T14:35:32.098Z,23.54
2018-07-12T14:38:02.785Z,23.36
2018-07-12T14:40:33.464Z,23.06
2018-07-12T14:43:04.149Z,22.86
2018-07-12T14:45:34.865Z,22.66
2018-07-12T14:48:05.582Z,22.49
2018-07-12T14:50:35.683Z,22.43
2018-07-12T14:53:06.370Z,22.31
2018-07-12T14:55:37.281Z,22.32
2018-07-12T14:58:07.451Z,22.41
2018-07-12T15:00:38.187Z,22.51
2018-07-12T15:03:08.301Z,22.63
2018-07-12T15:05:38.370Z,22.42
2018-07-12T15:08:09.184Z,22.15
2018-07-12T15:10:39.849Z,21.94
2018-07-12T15:13:09.913Z,21.92
2018-07-12T15:15:39.994Z,21.81
2018-07-12T15:18:10.098Z,21.71
2018-07-12T15:20:40.206Z,21.62
2018-07-12T15:23:10.286Z,21.66
2018-07-12T15:25:40.420Z,21.77
2018-07-12T15:28:10.475Z,21.76
2018-07-12T15:30:41.171Z,21.89
2018-07-12T15:33:11.302Z,22.21
2018-07-12T15:35:42.172Z,22.35
2018-07-12T15:38:13.101Z,22.43
2018-07-12T15:40:43.973Z,22.41
2018-07-12T15:43:14.666Z,22.32
2018-07-12T15:45:45.336Z,22.32
2018-07-12T15:48:16.028Z,22.26
2018-07-12T15:50:45.886Z,22.18
2018-07-12T15:53:15.946Z,22.12
2018-07-12T15:55:46.246Z,22.03
2018-07-12T15:58:16.309Z,21.85
2018-07-12T16:00:47.080Z,21.75
2018-07-12T16:03:17.157Z,21.75
2018-07-12T16:05:47.258Z,21.73
2018-07-12T16:08:17.319Z,21.74
2018-07-12T16:10:47.375Z,21.78
2018-07-12T16:13:18.025Z,21.74
2018-07-12T16:15:48.077Z,21.71
2018-07-12T16:18:18.193Z,21.72
2018-07-12T16:20:48.245Z,21.70
2018-07-12T16:23:18.327Z,21.63
2018-07-12T16:25:48.361Z,21.52
2018-07-12T16:28:18.574Z,21.51
2018-07-12T16:30:48.709Z,21.57
2018-07-12T16:33:19.357Z,21.60
2018-07-12T16:35:50.097Z,21.52
2018-07-12T16:38:20.762Z,21.36
2018-07-12T16:40:50.938Z,21.21
2018-07-12T16:43:21.645Z,21.06
2018-07-12T16:45:51.743Z,20.93
2018-07-12T16:48:21.902Z,20.78
2018-07-12T16:50:51.971Z,20.68
2018-07-12T16:53:22.081Z,20.53
2018-07-12T16:55:52.253Z,20.45
2018-07-12T16:58:22.354Z,20.35
2018-07-12T17:00:52.431Z,20.30
2018-07-12T17:03:22.541Z,20.28
2018-07-12T17:05:52.581Z,20.25
2018-07-12T17:08:22.655Z,20.21
2018-07-12T17:10:52.705Z,20.22
2018-07-12T17:13:22.786Z,20.17
2018-07-12T17:15:53.097Z,20.12
2018-07-12T17:18:23.193Z,20.10
2018-07-12T17:20:53.307Z,20.07
2018-07-12T17:23:23.359Z,20.04
2018-07-12T17:25:53.426Z,20.09
2018-07-12T17:28:23.569Z,20.15
2018-07-12T17:30:53.749Z,20.24
2018-07-12T17:33:23.874Z,20.29
2018-07-12T17:35:54.118Z,20.22
2018-07-12T17:38:24.219Z,20.15
2018-07-12T17:40:54.300Z,20.11
2018-07-12T17:43:24.398Z,20.08
2018-07-12T17:45:54.481Z,20.14
2018-07-12T17:48:24.337Z,20.25
2018-07-12T17:50:54.420Z,20.35
2018-07-12T17:53:24.215Z,20.40
2018-07-12T17:55:54.353Z,20.45
2018-07-12T17:58:24.433Z,20.53
2018-07-12T18:00:54.518Z,20.48
2018-07-12T18:03:24.457Z,20.36
2018-07-12T18:05:54.638Z,20.28
2018-07-12T18:08:24.693Z,20.11
2018-07-12T18:10:54.817Z,20.11
2018-07-12T18:13:25.321Z,20.11
2018-07-12T18:15:55.459Z,19.92
2018-07-12T18:18:25.739Z,19.72
2018-07-12T18:20:55.878Z,19.72
2018-07-12T18:23:25.942Z,19.61
2018-07-12T18:25:57.071Z,19.61
2018-07-12T18:28:27.173Z,19.49
2018-07-12T18:30:57.411Z,19.41
2018-07-12T18:33:27.524Z,19.37
2018-07-12T18:35:57.632Z,19.29
2018-07-12T18:38:27.910Z,19.18
2018-07-12T18:40:58.033Z,19.14
2018-07-12T18:43:28.110Z,19.08
2018-07-12T18:45:58.463Z,18.93
2018-07-12T18:48:28.621Z,18.88
2018-07-12T18:50:58.548Z,18.85
2018-07-12T18:53:28.641Z,18.83
2018-07-12T18:55:58.989Z,18.87
2018-07-12T18:58:29.302Z,18.76
2018-07-12T19:00:59.387Z,18.68
2018-07-12T19:03:29.457Z,18.63
2018-07-12T19:05:59.502Z,18.58
2018-07-12T19:08:29.562Z,18.54
2018-07-12T19:10:59.739Z,18.53
2018-07-12T19:13:29.798Z,18.53
2018-07-12T19:15:59.870Z,18.54
2018-07-12T19:18:29.793Z,18.60
2018-07-12T19:21:03.433Z,18.58
2018-07-12T19:23:33.962Z,18.60
2018-07-12T19:26:04.043Z,18.57
2018-07-12T19:28:34.800Z,18.57
2018-07-12T19:31:05.146Z,18.64
2018-07-12T19:33:35.304Z,18.62
2018-07-12T19:36:05.605Z,18.58
2018-07-12T19:38:35.797Z,18.62
2018-07-12T19:41:05.882Z,18.59
2018-07-12T19:43:35.977Z,18.63
2018-07-12T19:46:06.112Z,18.62
2018-07-12T19:48:36.218Z,18.53
2018-07-12T19:51:06.457Z,18.35
2018-07-12T19:53:37.891Z,18.19
2018-07-12T19:56:08.050Z,18.02
2018-07-12T19:58:38.217Z,17.85
2018-07-12T20:01:08.781Z,17.66
2018-07-12T20:03:39.192Z,17.50
2018-07-12T20:06:09.403Z,17.41
2018-07-12T20:08:39.524Z,17.36
2018-07-12T20:11:09.713Z,17.47
2018-07-12T20:13:39.878Z,17.69
2018-07-12T20:16:10.226Z,17.67
2018-07-12T20:18:40.313Z,17.49
2018-07-12T20:21:10.643Z,17.42
2018-07-12T20:23:40.481Z,17.42
2018-07-12T20:26:10.576Z,17.36
2018-07-12T20:28:40.906Z,17.23
2018-07-12T20:31:11.089Z,17.14
2018-07-12T20:33:41.439Z,17.08
2018-07-12T20:36:12.339Z,17.06
2018-07-12T20:38:42.562Z,17.05
2018-07-12T20:41:13.034Z,16.98
2018-07-12T20:43:43.131Z,16.95
2018-07-12T20:46:13.240Z,16.97
2018-07-12T20:48:43.394Z,16.96
2018-07-12T20:51:13.625Z,16.85
2018-07-12T20:53:43.707Z,16.76
2018-07-12T20:56:13.893Z,16.77
2018-07-12T20:58:43.933Z,16.74
2018-07-12T21:01:14.059Z,16.87
2018-07-12T21:03:44.117Z,16.92
2018-07-12T21:06:14.193Z,17.00
2018-07-12T21:08:44.032Z,16.98
2018-07-12T21:11:14.404Z,16.99
2018-07-12T21:13:46.753Z,17.02
2018-07-12T21:16:16.852Z,17.11
2018-07-12T21:18:46.762Z,17.06
2018-07-12T21:21:16.902Z,17.07
2018-07-12T21:23:47.051Z,17.07
2018-07-12T21:26:17.150Z,17.23
2018-07-12T21:28:47.205Z,17.21
2018-07-12T21:31:17.283Z,17.15
2018-07-12T21:33:47.342Z,17.12
2018-07-12T21:36:17.428Z,17.14
2018-07-12T21:38:48.245Z,17.13
2018-07-12T21:41:18.336Z,17.25
2018-07-12T21:43:48.490Z,17.33
2018-07-12T21:46:18.800Z,17.28
2018-07-12T21:48:49.002Z,17.29
2018-07-12T21:51:19.115Z,17.28
2018-07-12T21:53:49.241Z,17.31
2018-07-12T21:56:19.720Z,17.34
2018-07-12T21:58:49.835Z,17.47
2018-07-12T22:01:20.010Z,17.47
2018-07-12T22:03:49.887Z,17.46
2018-07-12T22:06:29.454Z,17.40
2018-07-12T22:08:59.434Z,17.53
2018-07-12T22:11:29.739Z,17.46
2018-07-12T22:14:04.259Z,17.46
2018-07-12T22:16:34.517Z,17.40
2018-07-12T22:19:07.374Z,17.31
2018-07-12T22:21:37.802Z,17.25
2018-07-12T22:24:07.915Z,17.41
2018-07-12T22:26:38.645Z,17.45
2018-07-12T22:29:08.730Z,17.39
2018-07-12T22:31:39.793Z,17.36
2018-07-12T22:34:10.133Z,17.37
2018-07-12T22:36:42.540Z,17.38
2018-07-12T22:39:13.102Z,17.30
2018-07-12T22:41:46.747Z,17.25
2018-07-12T22:44:20.590Z,17.18
2018-07-12T22:46:51.214Z,17.09
2018-07-12T22:49:21.480Z,17.03
2018-07-12T22:51:51.990Z,17.03
2018-07-12T22:54:22.118Z,17.14
2018-07-12T22:56:52.748Z,17.15
2018-07-12T22:59:23.765Z,17.16
2018-07-12T23:01:54.744Z,17.08
2018-07-12T23:04:24.996Z,16.93
2018-07-12T23:06:55.772Z,16.84
2018-07-12T23:09:28.178Z,16.81
2018-07-12T23:11:59.048Z,16.86
2018-07-12T23:14:29.320Z,16.78
2018-07-12T23:16:59.482Z,16.70
2018-07-12T23:19:29.655Z,16.65
2018-07-12T23:22:06.592Z,16.66
2018-07-12T23:24:38.531Z,16.76
2018-07-12T23:27:08.809Z,16.90
2018-07-12T23:29:39.530Z,16.94
2018-07-12T23:32:09.641Z,16.93
2018-07-12T23:34:39.702Z,17.01
2018-07-12T23:37:10.088Z,17.10
2018-07-12T23:39:40.226Z,17.04
2018-07-12T23:42:10.473Z,16.96
2018-07-12T23:44:40.724Z,16.80
2018-07-12T23:47:11.727Z,16.66
2018-07-12T23:49:43.828Z,16.52
2018-07-12T23:52:13.803Z,16.39
2018-07-12T23:54:44.113Z,16.24
2018-07-12T23:57:14.394Z,16.15
2018-07-12T23:59:46.103Z,16.04
